createdAt,value
2022-09-15T00:04:25.138Z,19.56
2022-09-15T00:09:27.587Z,19.81
2022-09-15T00:14:30.008Z,19.84
2022-09-15T00:19:32.455Z,19.59
2022-09-15T00:24:36.036Z,19.50
2022-09-15T00:29:38.727Z,19.46
2022-09-15T00:34:41.225Z,19.49
2022-09-15T00:39:43.879Z,19.62
2022-09-15T00:44:52.742Z,19.59
2022-09-15T00:50:02.139Z,19.63
2022-09-15T00:55:12.384Z,19.66
2022-09-15T01:00:21.726Z,19.75
2022-09-15T01:05:30.098Z,19.63
2022-09-15T01:10:38.045Z,19.57
2022-09-15T01:16:07.138Z,19.70
2022-09-15T01:21:12.759Z,19.54
2022-09-15T01:26:38.580Z,19.67
2022-09-15T01:32:13.815Z,19.74
2022-09-15T01:37:28.406Z,19.66
2022-09-15T01:42:32.815Z,19.73
2022-09-15T01:47:37.119Z,19.49
2022-09-15T01:52:44.350Z,19.40
2022-09-15T01:57:47.015Z,19.37
2022-09-15T02:03:01.767Z,19.26
2022-09-15T02:08:25.160Z,19.14
2022-09-15T02:13:45.286Z,19.10
2022-09-15T02:19:02.575Z,19.11
2022-09-15T02:24:14.370Z,19.12
2022-09-15T02:29:19.732Z,19.29
2022-09-15T02:34:31.371Z,19.27
2022-09-15T02:39:37.252Z,19.32
2022-09-15T02:44:39.662Z,19.21
2022-09-15T02:49:42.044Z,19.13
2022-09-15T02:54:44.844Z,19.25
2022-09-15T03:00:06.168Z,19.23
2022-09-15T03:05:09.836Z,18.98
2022-09-15T03:10:14.006Z,18.90
2022-09-15T03:15:18.773Z,18.81
2022-09-15T03:20:30.433Z,18.75
2022-09-15T03:25:33.162Z,18.73
2022-09-15T03:30:35.580Z,18.69
2022-09-15T03:35:38.503Z,18.64
2022-09-15T03:40:43.209Z,18.60
2022-09-15T03:45:45.736Z,18.57
2022-09-15T03:50:48.892Z,18.52
2022-09-15T03:55:51.823Z,18.49
2022-09-15T04:00:54.467Z,18.44
2022-09-15T04:05:57.353Z,18.35
2022-09-15T04:11:03.634Z,18.26
2022-09-15T04:16:14.723Z,18.26
2022-09-15T04:21:20.568Z,18.25
2022-09-15T04:26:31.402Z,18.27
2022-09-15T04:31:34.459Z,18.28
2022-09-15T04:36:37.171Z,18.29
2022-09-15T04:41:39.664Z,18.31
2022-09-15T04:46:42.179Z,18.33
2022-09-15T04:51:44.904Z,18.30
2022-09-15T04:56:47.547Z,18.25
2022-09-15T05:01:53.554Z,18.22
2022-09-15T05:06:56.099Z,18.26
2022-09-15T05:11:58.628Z,18.27
2022-09-15T05:17:01.117Z,18.27
2022-09-15T05:22:03.832Z,18.35
2022-09-15T05:27:06.342Z,18.31
2022-09-15T05:32:08.995Z,18.34
2022-09-15T05:37:11.541Z,18.36
2022-09-15T05:42:14.327Z,18.45
2022-09-15T05:47:17.096Z,18.53
2022-09-15T05:52:19.726Z,18.45
2022-09-15T05:57:22.183Z,18.35
2022-09-15T06:02:24.677Z,18.47
2022-09-15T06:07:27.201Z,18.51
2022-09-15T06:12:29.634Z,18.57
2022-09-15T06:17:35.181Z,18.51
2022-09-15T06:22:37.717Z,18.58
2022-09-15T06:27:41.482Z,18.58
2022-09-15T06:32:47.903Z,18.64
2022-09-15T06:37:51.221Z,18.64
2022-09-15T06:42:57.066Z,18.41
2022-09-15T06:48:20.601Z,18.31
2022-09-15T06:53:22.303Z,18.14
2022-09-15T06:58:24.743Z,18.32
2022-09-15T07:03:27.266Z,18.35
2022-09-15T07:08:30.522Z,18.26
2022-09-15T07:13:32.973Z,18.29
2022-09-15T07:18:40.944Z,18.15
2022-09-15T07:23:48.413Z,18.11
2022-09-15T07:28:54.526Z,18.03
2022-09-15T07:33:57.455Z,18.02
2022-09-15T07:38:59.933Z,18.07
2022-09-15T07:44:02.806Z,18.05
2022-09-15T07:49:06.583Z,17.96
2022-09-15T07:54:09.070Z,17.92
2022-09-15T07:59:11.555Z,17.83
2022-09-15T08:04:14.119Z,17.77
2022-09-15T08:09:17.819Z,17.72
2022-09-15T08:14:20.339Z,17.68
2022-09-15T08:19:23.000Z,17.73
2022-09-15T08:24:25.544Z,17.78
2022-09-15T08:29:28.655Z,17.82
2022-09-15T08:34:31.373Z,17.83
2022-09-15T08:39:33.931Z,17.98
2022-09-15T08:44:57.660Z,18.08
2022-09-15T08:50:25.130Z,18.08
2022-09-15T08:55:45.033Z,18.33
2022-09-15T09:00:51.943Z,18.58
2022-09-15T09:05:57.167Z,18.73
2022-09-15T09:11:25.464Z,18.83
2022-09-15T09:16:50.894Z,18.73
2022-09-15T09:22:28.389Z,18.85
2022-09-15T09:27:35.033Z,18.95
2022-09-15T09:33:15.342Z,19.22
2022-09-15T09:38:44.179Z,20.10
2022-09-15T09:43:49.230Z,21.12
2022-09-15T09:49:18.717Z,21.43
2022-09-15T09:54:25.140Z,21.40
2022-09-15T09:59:42.650Z,21.54
2022-09-15T10:04:50.115Z,21.79
2022-09-15T10:09:57.320Z,21.87
2022-09-15T10:15:05.791Z,21.77
2022-09-15T10:20:32.285Z,21.86
2022-09-15T10:25:58.122Z,21.94
2022-09-15T10:31:13.390Z,21.96
2022-09-15T10:36:21.373Z,21.94
2022-09-15T10:41:32.111Z,21.86
2022-09-15T10:46:44.385Z,21.95
2022-09-15T10:52:19.554Z,21.99
2022-09-15T10:57:51.833Z,21.92
2022-09-15T11:03:15.936Z,21.88
2022-09-15T11:08:33.995Z,21.88
2022-09-15T11:13:56.574Z,21.95
2022-09-15T11:19:27.159Z,21.92
2022-09-15T11:24:56.386Z,21.99
2022-09-15T11:30:19.051Z,21.94
2022-09-15T11:35:37.076Z,21.75
2022-09-15T11:41:06.205Z,21.74
2022-09-15T11:46:18.891Z,21.88
2022-09-15T11:51:24.429Z,21.95
2022-09-15T11:56:45.713Z,21.88
2022-09-15T12:02:09.241Z,21.76
2022-09-15T12:07:20.710Z,21.62
2022-09-15T12:12:26.106Z,20.98
2022-09-15T12:17:52.766Z,20.72
2022-09-15T12:23:00.021Z,20.73
2022-09-15T12:28:24.049Z,20.80
2022-09-15T12:33:46.831Z,21.63
2022-09-15T12:38:49.846Z,21.66
2022-09-15T12:43:57.726Z,22.04
2022-09-15T12:49:03.249Z,22.01
2022-09-15T12:54:08.827Z,22.13
2022-09-15T12:59:15.776Z,22.08
2022-09-15T13:04:51.919Z,22.22
2022-09-15T13:10:16.072Z,22.56
2022-09-15T13:15:20.498Z,22.79
2022-09-15T13:20:33.801Z,22.74
2022-09-15T13:25:37.655Z,22.67
2022-09-15T13:31:02.050Z,22.75
2022-09-15T13:42:36.482Z,23.50
2022-09-15T13:48:23.406Z,23.85
2022-09-15T13:53:32.383Z,26.51
2022-09-15T14:04:01.469Z,25.36
2022-09-15T14:09:15.072Z,24.14
2022-09-15T14:14:54.111Z,25.34
2022-09-15T14:20:01.658Z,26.10
2022-09-15T14:25:14.961Z,26.65
2022-09-15T14:30:31.356Z,28.60
2022-09-15T14:35:38.072Z,28.69
2022-09-15T14:40:41.432Z,27.14
2022-09-15T14:45:55.119Z,24.36
2022-09-15T14:51:18.829Z,25.87
2022-09-15T14:56:28.504Z,25.30
2022-09-15T15:01:40.650Z,22.97
2022-09-15T15:07:10.574Z,22.41
2022-09-15T15:12:34.491Z,22.51
2022-09-15T15:17:49.498Z,22.57
2022-09-15T15:23:27.934Z,22.18
2022-09-15T15:28:39.387Z,22.39
2022-09-15T15:34:05.288Z,22.64
2022-09-15T15:39:21.023Z,21.55
2022-09-15T15:44:27.989Z,21.33
2022-09-15T15:49:32.687Z,20.80
2022-09-15T15:54:35.598Z,20.56
2022-09-15T15:59:38.035Z,20.47
2022-09-15T16:04:40.554Z,21.01
2022-09-15T16:09:43.438Z,20.20
2022-09-15T16:14:46.379Z,20.23
2022-09-15T16:19:48.787Z,19.79
2022-09-15T16:24:51.191Z,20.16
2022-09-15T16:29:53.614Z,19.94
2022-09-15T16:34:56.009Z,19.07
2022-09-15T16:39:58.534Z,18.87
2022-09-15T16:45:01.741Z,18.78
2022-09-15T16:50:04.480Z,19.19
2022-09-15T16:55:35.888Z,19.40
2022-09-15T17:00:39.406Z,19.18
2022-09-15T17:05:48.757Z,18.93
2022-09-15T17:10:53.034Z,19.01
2022-09-15T17:15:56.042Z,19.04
2022-09-15T17:20:59.516Z,19.13
2022-09-15T17:26:04.801Z,19.91
2022-09-15T17:31:18.970Z,20.53
2022-09-15T17:36:21.808Z,21.09
2022-09-15T17:41:24.276Z,21.08
2022-09-15T17:46:26.793Z,20.90
2022-09-15T17:51:29.523Z,20.92
2022-09-15T17:56:32.422Z,21.22
2022-09-15T18:01:34.889Z,21.05
2022-09-15T18:06:37.314Z,19.87
2022-09-15T18:11:39.754Z,19.26
2022-09-15T18:16:43.251Z,18.83
2022-09-15T18:21:51.852Z,19.15
2022-09-15T18:26:54.505Z,20.42
2022-09-15T18:31:59.252Z,19.84
2022-09-15T18:37:02.238Z,18.90
2022-09-15T18:42:04.851Z,19.14
2022-09-15T18:47:07.290Z,19.71
2022-09-15T18:52:09.755Z,20.24
2022-09-15T18:57:12.252Z,20.73
2022-09-15T19:02:15.495Z,20.93
2022-09-15T19:07:18.102Z,20.73
2022-09-15T19:17:44.514Z,20.40
2022-09-15T19:22:47.617Z,20.38
2022-09-15T19:27:50.182Z,19.66
2022-09-15T19:32:52.844Z,19.03
2022-09-15T19:37:55.474Z,18.91
2022-09-15T19:42:57.972Z,18.83
2022-09-15T19:48:00.493Z,18.11
2022-09-15T19:53:03.045Z,18.42
2022-09-15T19:58:05.454Z,18.83
2022-09-15T20:03:07.954Z,18.53
2022-09-15T20:08:10.378Z,18.60
2022-09-15T20:13:13.071Z,18.74
2022-09-15T20:18:16.420Z,18.42
2022-09-15T20:23:20.473Z,18.71
2022-09-15T20:28:23.622Z,19.40
2022-09-15T20:33:26.482Z,19.97
2022-09-15T20:38:28.949Z,20.20
2022-09-15T20:43:31.611Z,20.51
2022-09-15T20:48:36.432Z,19.87
2022-09-15T20:53:41.345Z,19.43
2022-09-15T20:58:44.375Z,19.96
2022-09-15T21:03:47.913Z,19.33
2022-09-15T21:08:51.168Z,19.44
2022-09-15T21:13:54.395Z,18.15
2022-09-15T21:18:58.595Z,17.90
2022-09-15T21:24:04.306Z,18.08
2022-09-15T21:29:06.724Z,18.91
2022-09-15T21:34:09.634Z,19.66
2022-09-15T21:39:12.050Z,19.95
2022-09-15T21:44:14.689Z,20.14
2022-09-15T21:49:18.320Z,20.45
2022-09-15T21:54:20.872Z,20.40
2022-09-15T21:59:23.420Z,19.56
2022-09-15T22:04:25.933Z,19.67
2022-09-15T22:09:28.341Z,19.15
2022-09-15T22:14:31.692Z,18.69
2022-09-15T22:19:34.132Z,18.20
2022-09-15T22:24:36.607Z,18.31
2022-09-15T22:29:39.092Z,18.68
2022-09-15T22:34:41.717Z,19.06
2022-09-15T22:39:58.360Z,18.99
2022-09-15T22:45:05.170Z,19.67
2022-09-15T22:50:08.179Z,19.96
2022-09-15T22:55:11.074Z,20.10
2022-09-15T23:00:15.145Z,19.66
2022-09-15T23:05:17.760Z,19.63
2022-09-15T23:10:20.218Z,19.79
2022-09-15T23:15:22.851Z,19.99
2022-09-15T23:20:25.241Z,20.26
2022-09-15T23:25:27.659Z,20.01
2022-09-15T23:30:30.089Z,20.02
2022-09-15T23:35:32.506Z,20.28
2022-09-15T23:40:35.076Z,20.26
2022-09-15T23:45:37.852Z,19.11
2022-09-15T23:50:41.741Z,18.88
2022-09-15T23:55:45.076Z,19.73
